Time;durP1;ratioP1;P1;durP2;ratioP2;P2;SDS_P1;SDS_P2;PMS_P1;PMS_P2;Temp;Humidity;BMP_temperature;BMP_pressure;BME280_temperature;BME280_humidity;BME280_pressure;Samples;Min_cycle;Max_cycle;Signal;HPM_P1;HPM_P2
2023/07/30 00:00:40;;;;;;;10.90;2.83;;;;;;;14.57;87.87;100834.75;5047206;28;20029;-68
2023/07/30 00:03:06;;;;;;;7.00;2.30;;;;;;;14.56;88.66;100834.88;5046971;28;20094;-69
2023/07/30 00:05:31;;;;;;;7.38;2.63;;;;;;;14.57;88.19;100839.34;5047173;28;20470;-68
2023/07/30 00:07:56;;;;;;;8.93;2.70;;;;;;;14.55;87.96;100844.97;5045699;28;20508;-68
2023/07/30 00:10:22;;;;;;;6.60;2.75;;;;;;;14.52;87.88;100840.63;5062718;28;20074;-68
2023/07/30 00:12:47;;;;;;;7.95;2.83;;;;;;;14.52;87.89;100845.22;5046187;28;20150;-68
2023/07/30 00:15:13;;;;;;;8.15;2.70;;;;;;;14.51;88.34;100840.78;5047615;28;20032;-68
2023/07/30 00:17:39;;;;;;;5.78;2.97;;;;;;;14.49;88.33;100846.34;5047238;28;20041;-67
2023/07/30 00:20:06;;;;;;;5.30;3.00;;;;;;;14.45;89.19;100836.66;5046785;28;20029;-67
2023/07/30 00:22:31;;;;;;;6.97;2.58;;;;;;;14.41;89.32;100839.78;5046157;28;20033;-69
2023/07/30 00:24:57;;;;;;;7.38;3.10;;;;;;;14.39;89.00;100837.22;5046464;28;20086;-67
2023/07/30 00:27:22;;;;;;;4.30;2.15;;;;;;;14.38;89.12;100832.75;5046128;28;20036;-68
2023/07/30 00:29:48;;;;;;;6.78;2.85;;;;;;;14.33;89.24;100842.38;5046940;28;20095;-70
2023/07/30 00:32:15;;;;;;;6.35;2.88;;;;;;;14.29;88.84;100828.09;5047134;28;20036;-69
2023/07/30 00:34:41;;;;;;;9.68;3.08;;;;;;;14.26;89.34;100845.63;5046684;28;20497;-69
2023/07/30 00:37:06;;;;;;;11.30;3.03;;;;;;;14.27;89.39;100843.78;5046788;28;20036;-68
2023/07/30 00:39:31;;;;;;;8.38;2.95;;;;;;;14.29;88.96;100849.97;5044373;28;20064;-69
2023/07/30 00:41:57;;;;;;;7.13;2.50;;;;;;;14.29;88.99;100853.56;5044416;28;20558;-68
2023/07/30 00:44:22;;;;;;;7.47;2.53;;;;;;;14.28;89.37;100846.38;5046687;28;20041;-68
2023/07/30 00:46:48;;;;;;;8.52;3.17;;;;;;;14.25;90.32;100843.91;5046902;28;20029;-69
2023/07/30 00:49:13;;;;;;;7.63;2.78;;;;;;;14.22;90.83;100849.66;5049634;28;20182;-69
2023/07/30 00:51:41;;;;;;;11.80;2.70;;;;;;;14.17;91.09;100846.44;5065575;28;20398;-68
2023/07/30 00:54:06;;;;;;;6.43;2.45;;;;;;;14.17;90.48;100854.63;5049265;28;20044;-68
2023/07/30 00:56:32;;;;;;;9.23;2.78;;;;;;;14.12;91.15;100851.44;5049553;28;20046;-68
2023/07/30 00:58:58;;;;;;;5.55;2.58;;;;;;;14.09;91.44;100850.88;5049998;28;20051;-68
2023/07/30 01:01:23;;;;;;;10.65;3.78;;;;;;;14.07;90.95;100852.84;5064603;28;20048;-68
2023/07/30 01:03:50;;;;;;;7.55;3.40;;;;;;;14.05;91.54;100855.72;5065333;28;20079;-69
2023/07/30 01:06:15;;;;;;;9.27;3.67;;;;;;;14.03;91.71;100863.19;5050835;28;20516;-68
2023/07/30 01:08:40;;;;;;;8.50;3.28;;;;;;;14.01;91.99;100863.31;5047636;28;20021;-68
2023/07/30 01:11:08;;;;;;;8.05;2.88;;;;;;;13.98;91.88;100863.56;5048687;28;20040;-68
2023/07/30 01:13:35;;;;;;;9.48;3.25;;;;;;;14.01;91.54;100870.66;5050746;28;20064;-69
2023/07/30 01:16:01;;;;;;;11.70;3.78;;;;;;;14.00;91.92;100872.53;5051919;28;20048;-68
2023/07/30 01:18:26;;;;;;;8.50;3.30;;;;;;;13.99;92.20;100873.53;5063776;28;20024;-67
2023/07/30 01:20:59;;;;;;;9.00;3.47;;;;;;;13.99;91.63;100878.16;5048726;28;20342;-68
2023/07/30 01:23:25;;;;;;;;;;;;;;;14.04;89.96;100879.47;5058880;28;20029;-68
2023/07/30 01:26:10;;;;;;;7.53;3.30;;;;;;;13.97;91.50;100872.78;5048218;28;20115;-69
2023/07/30 01:28:48;;;;;;;8.85;3.70;;;;;;;13.97;92.05;100878.25;5058325;28;20501;-69
2023/07/30 01:31:15;;;;;;;10.40;3.15;;;;;;;13.95;91.87;100879.41;5050533;28;20494;-69
2023/07/30 01:33:42;;;;;;;9.35;3.70;;;;;;;13.92;92.79;100879.66;5049612;28;20466;-69
2023/07/30 01:36:10;;;;;;;10.55;3.05;;;;;;;13.88;93.13;100881.78;5061196;28;20044;-68
2023/07/30 01:38:37;;;;;;;10.93;3.50;;;;;;;13.90;93.14;100885.28;5046227;28;20102;-69
2023/07/30 01:41:03;;;;;;;9.95;3.70;;;;;;;13.90;93.41;100898.97;5048932;28;20444;-69
2023/07/30 01:43:28;;;;;;;9.93;3.47;;;;;;;13.91;93.36;100884.28;5057313;28;20021;-69
2023/07/30 01:45:53;;;;;;;8.30;3.53;;;;;;;13.91;93.62;100880.66;5064762;28;20090;-68
2023/07/30 01:48:19;;;;;;;12.18;3.70;;;;;;;13.93;93.39;100893.19;5047775;28;20139;-69
2023/07/30 01:50:47;;;;;;;10.00;3.28;;;;;;;13.93;93.03;100890.47;5065122;28;20136;-68
2023/07/30 01:53:12;;;;;;;11.57;3.63;;;;;;;13.94;93.88;100891.31;5048408;28;20490;-69
2023/07/30 01:55:39;;;;;;;8.68;3.30;;;;;;;13.93;93.84;100900.53;5049146;28;20072;-69
2023/07/30 01:58:04;;;;;;;17.35;3.47;;;;;;;13.90;94.06;100887.16;5061539;28;20103;-68
2023/07/30 02:00:30;;;;;;;11.88;3.70;;;;;;;13.90;94.55;100898.09;5046957;28;20189;-69
2023/07/30 02:03:02;;;;;;;10.63;3.88;;;;;;;13.88;94.27;100900.06;5048855;28;20029;-70
2023/07/30 02:05:28;;;;;;;11.10;3.35;;;;;;;13.88;94.39;100903.66;5047866;28;20033;-69
2023/07/30 02:07:53;;;;;;;11.57;3.22;;;;;;;13.89;94.42;100896.31;5047785;28;20025;-70
2023/07/30 02:10:18;;;;;;;11.65;3.40;;;;;;;13.90;94.59;100890.75;5064281;28;20037;-68
2023/07/30 02:12:44;;;;;;;9.45;3.45;;;;;;;13.89;94.65;100894.47;5048770;28;20033;-69
2023/07/30 02:15:09;;;;;;;11.05;3.22;;;;;;;13.87;95.13;100896.47;5064041;28;20378;-69
2023/07/30 02:17:35;;;;;;;16.17;3.15;;;;;;;13.87;95.43;100898.34;5047421;28;20036;-68
2023/07/30 02:20:00;;;;;;;7.65;3.80;;;;;;;13.88;95.39;100886.41;5047259;28;20064;-69
2023/07/30 02:22:25;;;;;;;9.45;3.35;;;;;;;13.92;95.91;100887.88;5048870;28;20036;-69
2023/07/30 02:24:51;;;;;;;10.68;3.72;;;;;;;13.94;96.03;100881.28;5047889;28;20021;-69
2023/07/30 02:27:16;;;;;;;11.95;3.13;;;;;;;13.97;95.65;100885.59;5047253;28;20051;-69
2023/07/30 02:29:42;;;;;;;8.32;3.60;;;;;;;13.98;95.16;100885.47;5062842;28;20605;-69
2023/07/30 02:32:08;;;;;;;12.13;3.90;;;;;;;14.03;95.81;100885.06;5048540;28;20053;-69
2023/07/30 02:34:34;;;;;;;11.25;3.65;;;;;;;14.06;96.23;100882.06;5046925;28;20064;-69
2023/07/30 02:36:59;;;;;;;15.05;3.80;;;;;;;14.09;95.27;100880.97;5029968;28;20068;-69
2023/07/30 02:39:24;;;;;;;12.32;3.80;;;;;;;14.11;96.13;100881.69;5047237;28;20095;-68
2023/07/30 02:41:50;;;;;;;14.70;4.65;;;;;;;14.14;95.73;100879.56;5048007;28;20036;-68
2023/07/30 02:44:15;;;;;;;9.95;3.63;;;;;;;14.18;95.03;100870.06;5048477;28;20120;-70
2023/07/30 02:46:41;;;;;;;7.30;3.58;;;;;;;14.21;95.46;100877.13;5048441;28;20437;-70
2023/07/30 02:49:06;;;;;;;10.57;3.80;;;;;;;14.23;95.81;100878.75;5047696;28;20049;-69
2023/07/30 02:51:31;;;;;;;15.35;4.93;;;;;;;14.26;96.21;100880.34;5048069;28;20374;-69
2023/07/30 02:54:04;;;;;;;15.07;4.72;;;;;;;14.28;97.10;100883.81;5047196;28;20056;-69
2023/07/30 02:56:29;;;;;;;12.57;4.53;;;;;;;14.30;97.09;100882.66;5047577;28;20037;-68
2023/07/30 02:58:55;;;;;;;13.77;4.32;;;;;;;14.33;97.27;100884.28;5048095;28;20420;-68
2023/07/30 03:01:20;;;;;;;14.98;4.70;;;;;;;14.36;97.11;100886.75;5062130;28;20059;-69
2023/07/30 03:03:46;;;;;;;11.25;4.40;;;;;;;14.39;96.69;100881.00;5063693;28;20132;-69
2023/07/30 03:06:11;;;;;;;20.00;4.32;;;;;;;14.39;97.11;100877.41;5061894;28;20041;-69
2023/07/30 03:08:38;;;;;;;14.63;4.80;;;;;;;14.42;97.17;100878.00;5061148;28;20128;-70
2023/07/30 03:11:03;;;;;;;11.82;4.43;;;;;;;14.46;96.56;100884.09;5047155;28;20044;-70
2023/07/30 03:13:29;;;;;;;15.05;4.72;;;;;;;14.49;97.05;100883.81;5061643;28;20017;-69
2023/07/30 03:15:54;;;;;;;17.80;6.07;;;;;;;14.49;97.13;100881.94;5047740;28;20466;-70
2023/07/30 03:18:19;;;;;;;14.60;4.35;;;;;;;14.50;97.42;100878.22;5061639;28;20029;-70
2023/07/30 03:20:45;;;;;;;15.30;4.63;;;;;;;14.51;97.21;100885.44;5063403;28;20397;-69
2023/07/30 03:23:10;;;;;;;15.90;4.50;;;;;;;14.51;96.78;100892.78;5046284;28;20566;-69
2023/07/30 03:25:35;;;;;;;13.10;4.82;;;;;;;14.53;96.65;100891.63;5063059;28;20919;-68
2023/07/30 03:28:01;;;;;;;16.48;5.05;;;;;;;14.54;96.54;100892.50;5047082;28;20028;-70
2023/07/30 03:30:26;;;;;;;12.50;4.45;;;;;;;14.51;96.61;100882.69;5062834;28;20040;-69
2023/07/30 03:32:51;;;;;;;18.27;4.68;;;;;;;14.54;96.48;100890.63;5047126;28;20140;-70
2023/07/30 03:35:17;;;;;;;12.40;4.30;;;;;;;14.57;96.70;100884.03;5047309;28;20064;-70
2023/07/30 03:37:42;;;;;;;10.82;4.25;;;;;;;14.58;95.54;100893.97;5047434;28;20053;-69
2023/07/30 03:40:08;;;;;;;17.45;4.85;;;;;;;14.60;96.92;100882.91;5046732;28;20036;-68
2023/07/30 03:42:33;;;;;;;14.02;4.68;;;;;;;14.58;97.29;100893.09;5046396;28;20032;-70
2023/07/30 03:44:59;;;;;;;15.20;4.25;;;;;;;14.57;96.90;100888.63;5047177;28;20107;-68
2023/07/30 03:47:24;;;;;;;16.13;4.85;;;;;;;14.57;97.46;100894.97;5062516;28;20405;-69
2023/07/30 03:49:49;;;;;;;12.65;4.07;;;;;;;14.58;97.64;100904.91;5044583;28;20017;-67
2023/07/30 03:52:17;;;;;;;12.23;4.03;;;;;;;14.58;97.63;100896.69;5062824;28;20040;-69
2023/07/30 03:54:42;;;;;;;19.55;5.07;;;;;;;14.59;97.81;100906.63;5064257;28;20028;-68
2023/07/30 03:57:08;;;;;;;16.48;4.57;;;;;;;14.59;98.16;100903.03;5045036;28;20194;-68
2023/07/30 03:59:33;;;;;;;13.65;4.47;;;;;;;14.60;97.43;100905.66;5047048;28;20435;-69
2023/07/30 04:01:59;;;;;;;18.15;4.78;;;;;;;14.58;97.49;100907.66;5055595;28;20436;-69
2023/07/30 04:04:24;;;;;;;15.48;4.55;;;;;;;14.62;97.58;100913.72;5046725;28;20029;-68
2023/07/30 04:06:49;;;;;;;13.38;4.30;;;;;;;14.63;97.58;100912.72;5045589;28;20072;-68
2023/07/30 04:09:15;;;;;;;15.23;5.05;;;;;;;14.63;97.88;100909.97;5058565;28;20385;-70
2023/07/30 04:11:40;;;;;;;10.65;4.60;;;;;;;14.62;98.52;100911.84;5066221;28;20058;-69
2023/07/30 04:14:07;;;;;;;8.98;3.83;;;;;;;14.61;97.67;100909.25;5048544;28;21041;-68
2023/07/30 04:16:33;;;;;;;14.70;4.50;;;;;;;14.62;97.52;100911.84;5047153;28;20393;-69
2023/07/30 04:18:58;;;;;;;12.68;4.13;;;;;;;14.62;97.27;100913.72;5064144;28;20033;-69
2023/07/30 04:21:24;;;;;;;17.85;4.50;;;;;;;14.61;97.92;100912.00;5066994;28;20044;-69
2023/07/30 04:23:49;;;;;;;20.73;4.65;;;;;;;14.62;98.17;100916.47;5058274;28;20132;-68
2023/07/30 04:26:15;;;;;;;16.30;5.30;;;;;;;14.64;98.15;100908.97;5050742;28;20051;-69
2023/07/30 04:28:40;;;;;;;17.85;4.70;;;;;;;14.64;98.71;100919.94;5050747;28;20454;-69
2023/07/30 04:31:06;;;;;;;15.57;4.00;;;;;;;14.64;98.12;100918.09;5049619;28;20041;-69
2023/07/30 04:33:31;;;;;;;15.82;4.28;;;;;;;14.66;97.96;100918.81;5046430;28;20087;-69
2023/07/30 04:35:57;;;;;;;10.38;5.05;;;;;;;14.67;98.54;100915.06;5065799;28;20033;-69
2023/07/30 04:38:23;;;;;;;19.25;5.22;;;;;;;14.72;98.25;100914.66;5064624;28;20037;-69
2023/07/30 04:40:49;;;;;;;19.50;4.63;;;;;;;14.74;99.40;100904.44;5065874;28;20041;-69
2023/07/30 04:43:14;;;;;;;18.85;5.72;;;;;;;14.76;98.49;100916.09;5065846;28;20060;-69
2023/07/30 04:45:42;;;;;;;22.17;5.65;;;;;;;14.78;98.39;100908.63;5064453;28;20033;-69
2023/07/30 04:48:07;;;;;;;18.38;5.13;;;;;;;14.82;97.67;100909.22;5064747;28;20041;-69
2023/07/30 04:50:33;;;;;;;18.23;5.10;;;;;;;14.87;98.45;100912.41;5065763;28;20025;-69
2023/07/30 04:52:58;;;;;;;23.98;5.70;;;;;;;14.92;98.42;100908.28;5049247;28;20037;-69
2023/07/30 04:55:24;;;;;;;19.52;5.82;;;;;;;14.96;97.51;100906.97;5065800;28;20025;-68
2023/07/30 04:57:49;;;;;;;13.32;4.78;;;;;;;15.00;97.25;100913.91;5049525;28;20033;-71
2023/07/30 05:00:15;;;;;;;19.23;5.70;;;;;;;15.06;97.61;100917.97;5065010;28;20036;-69
2023/07/30 05:02:40;;;;;;;16.98;5.85;;;;;;;15.09;98.02;100919.56;5065553;28;20116;-68
2023/07/30 05:05:06;;;;;;;18.65;5.65;;;;;;;15.13;97.68;100913.69;5065141;28;20092;-70
2023/07/30 05:07:31;;;;;;;18.13;5.60;;;;;;;15.19;97.78;100928.69;5067610;28;20029;-70
2023/07/30 05:09:57;;;;;;;17.25;5.68;;;;;;;15.23;96.91;100927.41;5062657;28;20045;-70
2023/07/30 05:12:22;;;;;;;15.18;5.50;;;;;;;15.29;97.35;100932.31;5048778;28;20037;-70
2023/07/30 05:14:47;;;;;;;17.80;6.63;;;;;;;15.31;96.79;100938.56;5050318;28;20056;-69
2023/07/30 05:17:13;;;;;;;16.48;5.78;;;;;;;15.31;97.25;100942.16;5050219;28;20336;-69
2023/07/30 05:19:38;;;;;;;24.00;5.82;;;;;;;15.30;97.20;100945.03;5049842;28;20159;-69
2023/07/30 05:22:05;;;;;;;16.90;6.35;;;;;;;15.32;97.42;100943.03;5049713;28;20037;-69
2023/07/30 05:24:31;;;;;;;16.65;5.85;;;;;;;15.29;97.06;100941.44;5048521;28;20037;-68
2023/07/30 05:26:56;;;;;;;14.77;5.63;;;;;;;15.29;96.96;100952.41;5048738;28;20334;-69
2023/07/30 05:29:21;;;;;;;21.08;5.82;;;;;;;15.30;97.20;100954.13;5049540;28;20043;-69
2023/07/30 05:31:47;;;;;;;18.02;5.65;;;;;;;15.31;97.19;100949.50;5052040;28;20160;-71
2023/07/30 05:34:12;;;;;;;17.83;5.57;;;;;;;15.34;97.19;100949.25;5052227;28;20029;-69
2023/07/30 05:36:37;;;;;;;14.75;5.03;;;;;;;15.38;97.22;100945.19;5048973;28;20106;-69
2023/07/30 05:39:03;;;;;;;14.00;5.85;;;;;;;15.40;97.00;100937.72;5048209;28;20045;-69
2023/07/30 05:41:28;;;;;;;20.35;5.78;;;;;;;15.44;96.87;100941.91;5048968;28;20033;-69
2023/07/30 05:43:53;;;;;;;13.65;6.47;;;;;;;15.46;97.11;100939.88;5049190;28;20037;-69
2023/07/30 05:46:19;;;;;;;20.25;5.97;;;;;;;15.48;97.61;100937.00;5060615;28;20428;-69
2023/07/30 05:48:44;;;;;;;29.10;6.03;;;;;;;15.51;97.63;100936.72;5050056;28;20044;-69
2023/07/30 05:51:10;;;;;;;20.00;6.32;;;;;;;15.49;97.04;100936.88;5049371;28;20076;-70
2023/07/30 05:53:35;;;;;;;18.00;6.10;;;;;;;15.53;96.60;100931.97;5048277;28;20401;-69
2023/07/30 05:56:01;;;;;;;21.13;6.45;;;;;;;15.57;96.71;100927.91;5048644;28;20125;-69
2023/07/30 05:58:26;;;;;;;22.15;5.72;;;;;;;15.63;96.32;100930.13;5049208;28;20398;-68
2023/07/30 06:00:51;;;;;;;25.75;7.43;;;;;;;15.69;97.04;100943.28;5049045;28;20436;-69
2023/07/30 06:03:18;;;;;;;23.40;7.07;;;;;;;15.71;97.36;100938.50;5047537;28;20315;-70
2023/07/30 06:05:44;;;;;;;24.42;7.07;;;;;;;15.80;96.14;100945.03;5049662;28;20033;-70
2023/07/30 06:08:09;;;;;;;21.67;7.28;;;;;;;15.88;96.32;100944.31;5047687;28;20421;-70
2023/07/30 06:10:38;;;;;;;22.92;5.95;;;;;;;15.95;96.12;100951.84;5048724;28;20041;-70
2023/07/30 06:13:05;;;;;;;18.23;6.32;;;;;;;16.02;95.90;100949.38;5067671;28;20035;-70
2023/07/30 06:15:31;;;;;;;26.25;6.45;;;;;;;16.07;96.85;100955.31;5069108;28;20037;-70
2023/07/30 06:17:56;;;;;;;24.02;7.05;;;;;;;16.12;95.25;100957.63;5052660;28;20036;-70
2023/07/30 06:20:21;;;;;;;21.30;6.72;;;;;;;16.12;95.10;100958.47;5048950;28;20416;-70
2023/07/30 06:22:47;;;;;;;23.95;6.65;;;;;;;16.09;95.67;100950.56;5048298;28;20449;-70
2023/07/30 06:25:12;;;;;;;19.27;7.38;;;;;;;16.12;95.20;100958.47;5048473;28;20032;-70
2023/07/30 06:27:37;;;;;;;24.70;7.25;;;;;;;16.14;96.17;100948.25;5066243;28;20045;-69
2023/07/30 06:30:04;;;;;;;20.05;6.32;;;;;;;16.19;95.45;100953.31;5068677;28;20060;-69
2023/07/30 06:32:29;;;;;;;24.00;5.95;;;;;;;16.24;94.02;100950.97;5065698;28;20485;-70
2023/07/30 06:34:55;;;;;;;20.73;6.38;;;;;;;16.26;94.41;100955.31;5061865;28;20041;-69
2023/07/30 06:37:20;;;;;;;22.15;5.95;;;;;;;16.32;94.64;100949.25;5066348;28;20048;-70
2023/07/30 06:39:45;;;;;;;23.98;6.15;;;;;;;16.39;95.49;100954.16;5045453;28;20045;-70
2023/07/30 06:42:11;;;;;;;18.52;6.40;;;;;;;16.45;94.19;100953.56;5058731;28;20170;-69
2023/07/30 06:44:36;;;;;;;21.08;6.20;;;;;;;16.44;92.97;100947.19;5065570;28;20074;-69
2023/07/30 06:47:02;;;;;;;16.45;5.65;;;;;;;16.53;95.31;100956.44;5053536;28;20033;-69
2023/07/30 06:49:28;;;;;;;22.92;6.75;;;;;;;16.61;93.16;100948.34;5052297;28;20044;-69
2023/07/30 06:51:53;;;;;;;18.17;6.35;;;;;;;16.68;93.25;100951.34;5056660;28;20045;-69
2023/07/30 06:54:20;;;;;;;18.63;6.00;;;;;;;16.81;92.25;100963.78;5056107;28;20146;-68
2023/07/30 06:58:55;;;;;;;22.17;5.75;;;;;;;16.90;92.82;100958.41;5017366;27;20405;-69
2023/07/30 07:01:20;;;;;;;20.85;5.97;;;;;;;16.95;92.13;100961.56;5017363;28;20049;-69
2023/07/30 07:03:45;;;;;;;14.00;5.70;;;;;;;16.97;91.73;100965.91;5005571;28;20088;-69
2023/07/30 07:06:11;;;;;;;20.30;6.22;;;;;;;17.02;90.38;100966.34;5003543;28;20105;-69
2023/07/30 07:08:36;;;;;;;26.23;5.95;;;;;;;17.01;91.68;100961.84;5005039;28;20061;-70
2023/07/30 07:11:01;;;;;;;18.15;5.15;;;;;;;17.03;90.44;100957.06;5004748;28;20053;-70
2023/07/30 07:13:27;;;;;;;15.20;4.70;;;;;;;17.09;92.05;100966.59;5003418;28;20096;-69
2023/07/30 07:15:52;;;;;;;17.52;4.95;;;;;;;17.18;90.93;100970.31;5004942;28;20350;-70
2023/07/30 07:18:17;;;;;;;23.00;5.43;;;;;;;17.31;91.41;100974.47;5021349;28;20120;-70
2023/07/30 07:20:43;;;;;;;20.40;5.07;;;;;;;17.52;90.60;100967.84;5023833;28;20684;-70
2023/07/30 07:23:08;;;;;;;18.52;4.55;;;;;;;17.75;90.01;100962.81;5002647;28;20485;-70
2023/07/30 07:25:34;;;;;;;17.58;4.60;;;;;;;17.78;86.84;100959.75;5004643;28;20074;-70
2023/07/30 07:27:59;;;;;;;19.95;5.10;;;;;;;17.84;89.61;100967.38;5003767;28;20359;-69
2023/07/30 07:30:24;;;;;;;19.05;4.70;;;;;;;17.96;87.43;100968.03;5004645;28;20112;-71
2023/07/30 07:32:53;;;;;;;17.88;4.60;;;;;;;18.22;88.01;100968.97;5003389;28;20038;-70
2023/07/30 07:35:20;;;;;;;13.95;4.38;;;;;;;18.33;85.53;100973.41;5005059;28;20039;-70
2023/07/30 07:37:45;;;;;;;16.65;4.05;;;;;;;18.28;84.16;100970.25;5024311;28;20022;-70
2023/07/30 07:40:11;;;;;;;26.30;4.90;;;;;;;18.34;85.10;100978.72;5004107;28;20703;-71
2023/07/30 07:42:38;;;;;;;21.73;4.50;;;;;;;18.28;84.03;100984.03;5003690;28;20042;-70
2023/07/30 07:45:05;;;;;;;18.23;4.43;;;;;;;18.19;85.12;100990.47;5004398;28;20056;-70
2023/07/30 07:47:30;;;;;;;22.38;4.93;;;;;;;18.04;83.21;100993.75;5002851;28;20117;-71
2023/07/30 07:49:55;;;;;;;13.48;3.83;;;;;;;17.90;84.69;100988.78;5004207;28;20074;-71
2023/07/30 07:52:21;;;;;;;16.55;4.35;;;;;;;17.89;85.97;100987.03;5004112;28;20113;-70
2023/07/30 07:54:46;;;;;;;16.60;4.68;;;;;;;17.90;85.00;100985.16;5004326;28;20069;-70
2023/07/30 07:57:11;;;;;;;17.83;4.15;;;;;;;18.04;85.51;100985.47;5002131;28;20057;-71
2023/07/30 07:59:37;;;;;;;23.08;4.75;;;;;;;18.18;84.47;100975.81;5003878;28;20041;-70
2023/07/30 08:02:02;;;;;;;13.20;3.92;;;;;;;18.28;84.73;100984.03;5008959;28;20022;-70
2023/07/30 08:04:28;;;;;;;12.05;3.58;;;;;;;18.38;84.95;100986.69;5021282;28;20041;-70
2023/07/30 08:06:53;;;;;;;16.40;3.65;;;;;;;18.41;82.64;100978.94;5003741;28;20026;-70
2023/07/30 08:09:19;;;;;;;22.33;4.15;;;;;;;18.50;82.73;100986.25;4995587;28;20469;-70
2023/07/30 08:11:44;;;;;;;14.73;3.20;;;;;;;18.59;82.88;100996.31;4990758;28;20101;-71
2023/07/30 08:14:09;;;;;;;18.02;4.25;;;;;;;18.72;81.55;100992.34;4989391;28;20144;-70
2023/07/30 08:16:35;;;;;;;16.13;4.03;;;;;;;18.77;80.70;100995.47;4990620;28;20018;-70
2023/07/30 08:19:00;;;;;;;20.00;3.80;;;;;;;18.82;82.21;100995.84;4989218;28;20294;-71
2023/07/30 08:21:25;;;;;;;17.58;3.75;;;;;;;18.85;80.69;100992.78;4990269;28;20030;-71
2023/07/30 08:23:51;;;;;;;14.98;3.70;;;;;;;18.89;81.56;100994.19;4990292;28;20080;-70
2023/07/30 08:26:16;;;;;;;17.80;4.03;;;;;;;18.98;80.43;100997.84;4990354;28;20046;-72
2023/07/30 08:28:41;;;;;;;11.57;3.40;;;;;;;18.87;79.37;101001.75;4990871;28;20045;-71
2023/07/30 08:31:07;;;;;;;16.83;4.10;;;;;;;18.89;79.62;100993.34;4990875;28;20038;-71
2023/07/30 08:33:32;;;;;;;14.90;4.05;;;;;;;18.93;79.89;100995.63;5003627;28;20121;-71
2023/07/30 08:35:59;;;;;;;15.45;3.75;;;;;;;18.87;79.67;100993.47;5003987;28;20048;-70
2023/07/30 08:38:25;;;;;;;18.40;4.18;;;;;;;18.75;77.94;100992.03;4986992;28;20044;-70
2023/07/30 08:40:50;;;;;;;19.55;3.58;;;;;;;18.61;80.32;100985.16;5009495;28;20046;-70
2023/07/30 08:43:18;;;;;;;14.70;3.78;;;;;;;18.50;80.43;100997.28;5010252;28;20379;-70
2023/07/30 08:45:43;;;;;;;16.35;3.60;;;;;;;18.33;80.31;101000.94;5009206;28;20065;-70
2023/07/30 08:48:08;;;;;;;20.10;3.95;;;;;;;18.22;79.83;101002.03;5007703;28;20451;-70
2023/07/30 08:50:35;;;;;;;16.25;3.45;;;;;;;18.17;79.99;100998.00;5009743;28;20045;-70
2023/07/30 08:53:02;;;;;;;17.80;4.25;;;;;;;18.12;81.68;101015.00;5005964;28;20044;-70
2023/07/30 08:55:29;;;;;;;18.00;4.07;;;;;;;18.03;82.41;101014.03;4990060;28;20038;-71
2023/07/30 08:57:56;;;;;;;18.08;3.88;;;;;;;17.90;82.69;100996.16;4989329;28;20051;-70
2023/07/30 09:00:25;;;;;;;12.80;3.60;;;;;;;17.79;84.33;100995.38;4989947;28;20035;-71
2023/07/30 09:02:53;;;;;;;11.13;3.58;;;;;;;17.73;85.40;100992.34;4989896;28;20034;-70
2023/07/30 09:05:20;;;;;;;17.60;4.32;;;;;;;17.74;84.64;100997.72;4990593;28;20042;-71
2023/07/30 09:07:46;;;;;;;10.43;3.38;;;;;;;17.84;86.20;100993.00;4989301;28;20034;-70
2023/07/30 09:10:12;;;;;;;20.73;4.40;;;;;;;17.94;87.11;101006.72;5006937;28;20042;-70
2023/07/30 09:12:37;;;;;;;18.73;4.57;;;;;;;18.13;88.42;100996.59;5008745;28;20379;-70
2023/07/30 09:15:07;;;;;;;20.63;4.85;;;;;;;18.45;86.64;100996.03;5003318;28;20962;-71
2023/07/30 09:17:33;;;;;;;18.50;4.85;;;;;;;18.97;88.23;100990.63;4989478;28;20076;-71
2023/07/30 09:20:00;;;;;;;14.95;4.30;;;;;;;19.45;85.94;101001.09;4988851;28;20042;-71
2023/07/30 09:22:29;;;;;;;17.52;4.70;;;;;;;19.80;81.58;100997.28;4988847;28;20026;-70
2023/07/30 09:24:56;;;;;;;13.38;3.67;;;;;;;20.19;80.79;100995.81;5004115;28;20037;-71
2023/07/30 09:27:25;;;;;;;12.45;4.00;;;;;;;20.52;77.17;100996.78;5008264;28;20500;-71
2023/07/30 09:29:54;;;;;;;17.55;4.00;;;;;;;20.99;79.71;100983.06;4994901;28;20100;-71
2023/07/30 09:32:26;;;;;;;7.53;3.03;;;;;;;20.99;72.23;100985.84;4995731;28;20060;-70
2023/07/30 09:34:52;;;;;;;15.25;3.38;;;;;;;21.05;69.51;100998.09;5003106;28;20417;-70
2023/07/30 09:37:17;;;;;;;9.15;2.60;;;;;;;20.86;69.16;100975.31;4988817;28;20042;-71
2023/07/30 09:39:43;;;;;;;10.60;3.55;;;;;;;20.70;70.79;100979.97;4989332;28;20030;-71
2023/07/30 09:42:08;;;;;;;17.98;3.60;;;;;;;20.46;68.99;100978.06;4988480;28;20041;-71
2023/07/30 09:44:34;;;;;;;13.68;2.85;;;;;;;20.32;70.57;100987.88;4989024;28;20076;-71
2023/07/30 09:47:04;;;;;;;11.68;3.22;;;;;;;20.30;70.37;100987.22;4989330;28;20022;-71
2023/07/30 09:49:30;;;;;;;9.43;2.92;;;;;;;20.37;69.48;101000.16;4985621;28;20034;-72
2023/07/30 09:51:56;;;;;;;7.68;2.72;;;;;;;20.37;68.72;100991.00;4987441;28;20307;-73
2023/07/30 09:54:22;;;;;;;10.95;3.13;;;;;;;20.36;67.60;101003.09;5018174;28;20366;-74
2023/07/30 09:56:47;;;;;;;9.20;2.50;;;;;;;20.28;68.50;101006.69;5026115;28;20075;-74
2023/07/30 09:59:12;;;;;;;17.63;2.60;;;;;;;20.18;68.38;100996.84;5028655;28;20052;-71
2023/07/30 10:01:45;;;;;;;10.70;2.40;;;;;;;20.09;70.63;101016.16;5002691;28;20049;-73
2023/07/30 10:04:11;;;;;;;11.85;2.72;;;;;;;20.16;70.62;101004.47;4988681;28;20042;-72
2023/07/30 10:06:41;;;;;;;10.18;2.45;;;;;;;20.28;70.82;100995.66;5010471;28;20060;-73
2023/07/30 10:09:08;;;;;;;15.77;2.95;;;;;;;20.35;69.12;101009.66;5006309;28;20549;-73
2023/07/30 10:11:35;;;;;;;11.50;2.72;;;;;;;20.28;69.81;101008.59;4987798;28;20477;-74
2023/07/30 10:14:01;;;;;;;13.48;2.50;;;;;;;20.17;68.52;101008.94;4987031;28;20041;-74
2023/07/30 10:16:28;;;;;;;8.57;3.15;;;;;;;20.13;69.94;101020.31;4988677;28;20404;-73
2023/07/30 10:18:57;;;;;;;10.02;2.55;;;;;;;20.12;69.67;101014.97;4987428;28;20034;-72
2023/07/30 10:21:25;;;;;;;13.50;2.72;;;;;;;20.11;70.46;101027.94;4998866;28;20085;-73
2023/07/30 10:23:59;;;;;;;15.52;3.30;;;;;;;20.13;71.82;101041.56;4998688;28;20419;-73
2023/07/30 10:26:29;;;;;;;12.88;3.45;;;;;;;19.79;71.18;101048.00;4995270;28;20033;-73
2023/07/30 10:29:14;;;;;;;8.60;2.85;;;;;;;19.46;73.08;101058.00;5007306;28;20034;-74
2023/07/30 10:31:41;;;;;;;10.73;2.42;;;;;;;19.34;73.92;101049.13;5005806;28;20041;-73
2023/07/30 10:34:09;;;;;;;7.07;2.38;;;;;;;19.34;73.10;101073.09;5006119;28;20489;-73
2023/07/30 10:36:44;;;;;;;10.70;2.40;;;;;;;19.33;74.12;101065.84;5007707;28;20041;-73
2023/07/30 10:39:15;;;;;;;9.60;3.08;;;;;;;19.18;73.60;101065.56;4994891;28;20129;-72
2023/07/30 10:41:40;;;;;;;6.38;2.50;;;;;;;19.09;74.60;101066.53;4987999;28;20038;-73
2023/07/30 10:44:06;;;;;;;12.05;2.65;;;;;;;19.06;76.81;101053.94;4987424;28;20736;-73
2023/07/30 10:46:32;;;;;;;8.25;2.72;;;;;;;19.14;75.16;101061.41;4987949;28;20469;-73
2023/07/30 10:48:57;;;;;;;6.90;2.28;;;;;;;19.29;76.47;101058.91;4987912;28;20038;-73
2023/07/30 10:51:23;;;;;;;9.07;2.70;;;;;;;19.49;75.12;101063.19;4991687;28;20121;-73
2023/07/30 10:53:50;;;;;;;7.03;2.17;;;;;;;19.86;77.28;101057.38;4997886;28;20046;-72
2023/07/30 10:56:18;;;;;;;10.32;2.83;;;;;;;20.36;78.84;101062.00;4988421;28;20042;-72
2023/07/30 10:58:49;;;;;;;6.68;2.33;;;;;;;20.83;73.41;101052.22;4986654;28;20047;-73
2023/07/30 11:01:14;;;;;;;8.15;2.20;;;;;;;20.83;70.17;101044.78;4988734;28;20042;-73
2023/07/30 11:03:40;;;;;;;9.02;2.72;;;;;;;20.91;72.36;101048.59;4988155;28;20105;-73
2023/07/30 11:06:05;;;;;;;8.10;2.35;;;;;;;21.04;72.92;101048.94;4987798;28;20038;-73
2023/07/30 11:08:38;;;;;;;8.80;2.78;;;;;;;21.00;71.13;101059.50;4997239;28;20034;-72
2023/07/30 11:11:05;;;;;;;5.50;2.30;;;;;;;20.94;70.36;101074.03;4996615;28;20552;-72
2023/07/30 11:13:40;;;;;;;7.65;2.53;;;;;;;20.84;71.36;101063.13;5006432;28;20053;-73
2023/07/30 11:16:07;;;;;;;8.73;2.47;;;;;;;21.04;72.35;101060.88;5003157;28;20425;-72